sensor_id;sensor_type;location;lat;lon;timestamp;pressure;altitude;pressure_sealevel;temperature;humidity
79639;BME280;69114;49.108;8.280;2023-08-12T00:01:21;100620.22;;;19.26;86.32
79639;BME280;69114;49.108;8.280;2023-08-12T00:03:47;100614.78;;;19.33;85.90
79639;BME280;69114;49.108;8.280;2023-08-12T00:06:13;100616.31;;;19.31;86.03
79639;BME280;69114;49.108;8.280;2023-08-12T00:08:39;100610.56;;;19.27;86.38
79639;BME280;69114;49.108;8.280;2023-08-12T00:11:04;100608.94;;;19.26;86.60
79639;BME280;69114;49.108;8.280;2023-08-12T00:13:29;100610.13;;;19.25;86.66
79639;BME280;69114;49.108;8.280;2023-08-12T00:15:55;100608.75;;;19.19;87.64
79639;BME280;69114;49.108;8.280;2023-08-12T00:18:22;100608.03;;;19.38;86.11
79639;BME280;69114;49.108;8.280;2023-08-12T00:20:47;100598.91;;;19.44;85.62
79639;BME280;69114;49.108;8.280;2023-08-12T00:23:13;100595.69;;;19.46;85.57
79639;BME280;69114;49.108;8.280;2023-08-12T00:25:38;100585.31;;;19.50;85.38
79639;BME280;69114;49.108;8.280;2023-08-12T00:28:04;100587.50;;;19.57;85.12
79639;BME280;69114;49.108;8.280;2023-08-12T00:30:29;100575.13;;;19.61;84.83
79639;BME280;69114;49.108;8.280;2023-08-12T00:32:55;100570.47;;;19.53;85.54
79639;BME280;69114;49.108;8.280;2023-08-12T00:35:20;100572.91;;;19.55;85.18
79639;BME280;69114;49.108;8.280;2023-08-12T00:37:45;100564.91;;;19.57;84.83
79639;BME280;69114;49.108;8.280;2023-08-12T00:40:11;100567.72;;;19.57;85.32
79639;BME280;69114;49.108;8.280;2023-08-12T00:42:37;100568.16;;;19.59;85.23
79639;BME280;69114;49.108;8.280;2023-08-12T00:45:03;100567.00;;;19.60;85.34
79639;BME280;69114;49.108;8.280;2023-08-12T00:47:30;100572.00;;;19.51;85.88
79639;BME280;69114;49.108;8.280;2023-08-12T00:49:56;100569.53;;;19.49;85.57
79639;BME280;69114;49.108;8.280;2023-08-12T00:52:23;100565.09;;;19.48;85.89
79639;BME280;69114;49.108;8.280;2023-08-12T00:54:49;100565.66;;;19.38;86.24
79639;BME280;69114;49.108;8.280;2023-08-12T00:57:14;100576.13;;;19.22;87.40
79639;BME280;69114;49.108;8.280;2023-08-12T00:59:41;100569.66;;;19.37;86.75
79639;BME280;69114;49.108;8.280;2023-08-12T01:02:08;100573.69;;;19.20;87.15
79639;BME280;69114;49.108;8.280;2023-08-12T01:04:34;100579.41;;;19.39;86.09
79639;BME280;69114;49.108;8.280;2023-08-12T01:06:59;100576.53;;;19.55;84.99
79639;BME280;69114;49.108;8.280;2023-08-12T01:09:25;100575.94;;;19.62;84.95
79639;BME280;69114;49.108;8.280;2023-08-12T01:12:24;100582.28;;;19.59;84.80
79639;BME280;69114;49.108;8.280;2023-08-12T01:15:08;100588.88;;;19.63;84.54
79639;BME280;69114;49.108;8.280;2023-08-12T01:17:37;100576.47;;;19.52;84.83
79639;BME280;69114;49.108;8.280;2023-08-12T01:20:05;100578.50;;;19.35;85.55
79639;BME280;69114;49.108;8.280;2023-08-12T01:22:37;100578.56;;;19.55;85.18
79639;BME280;69114;49.108;8.280;2023-08-12T01:25:06;100570.72;;;19.64;84.29
79639;BME280;69114;49.108;8.280;2023-08-12T01:27:34;100576.00;;;19.50;84.83
79639;BME280;69114;49.108;8.280;2023-08-12T01:30:00;100569.75;;;19.40;86.11
79639;BME280;69114;49.108;8.280;2023-08-12T01:35:23;100580.69;;;19.26;86.53
79639;BME280;69114;49.108;8.280;2023-08-12T01:37:51;100593.44;;;19.20;87.24
79639;BME280;69114;49.108;8.280;2023-08-12T01:40:19;100583.59;;;19.45;85.13
79639;BME280;69114;49.108;8.280;2023-08-12T01:42:44;100574.81;;;19.51;85.33
79639;BME280;69114;49.108;8.280;2023-08-12T01:45:10;100581.38;;;19.55;85.06
79639;BME280;69114;49.108;8.280;2023-08-12T01:47:36;100576.94;;;19.54;85.58
79639;BME280;69114;49.108;8.280;2023-08-12T01:50:01;100585.69;;;19.49;86.37
79639;BME280;69114;49.108;8.280;2023-08-12T01:52:26;100574.38;;;19.49;86.03
79639;BME280;69114;49.108;8.280;2023-08-12T01:54:52;100575.19;;;19.49;86.04
79639;BME280;69114;49.108;8.280;2023-08-12T01:57:17;100584.69;;;19.57;85.97
79639;BME280;69114;49.108;8.280;2023-08-12T01:59:43;100579.84;;;19.57;86.01
79639;BME280;69114;49.108;8.280;2023-08-12T02:02:11;100586.31;;;19.58;85.74
79639;BME280;69114;49.108;8.280;2023-08-12T02:04:38;100578.84;;;19.50;85.57
79639;BME280;69114;49.108;8.280;2023-08-12T02:07:04;100573.75;;;19.39;86.39
79639;BME280;69114;49.108;8.280;2023-08-12T02:09:29;100572.81;;;19.51;85.70
79639;BME280;69114;49.108;8.280;2023-08-12T02:11:56;100580.94;;;19.53;85.78
79639;BME280;69114;49.108;8.280;2023-08-12T02:14:21;100571.94;;;19.47;86.14
79639;BME280;69114;49.108;8.280;2023-08-12T02:16:46;100571.66;;;19.36;86.70
79639;BME280;69114;49.108;8.280;2023-08-12T02:19:12;100564.84;;;19.37;86.51
79639;BME280;69114;49.108;8.280;2023-08-12T02:21:37;100580.47;;;19.51;85.95
79639;BME280;69114;49.108;8.280;2023-08-12T02:24:02;100571.38;;;19.57;84.99
79639;BME280;69114;49.108;8.280;2023-08-12T02:26:28;100573.28;;;19.53;84.95
79639;BME280;69114;49.108;8.280;2023-08-12T02:28:53;100593.63;;;19.27;86.34
79639;BME280;69114;49.108;8.280;2023-08-12T02:31:18;100607.13;;;19.18;86.44
79639;BME280;69114;49.108;8.280;2023-08-12T02:33:44;100600.19;;;19.00;88.87
79639;BME280;69114;49.108;8.280;2023-08-12T02:36:09;100591.06;;;18.90;90.63
79639;BME280;69114;49.108;8.280;2023-08-12T02:38:35;100587.34;;;19.02;90.15
79639;BME280;69114;49.108;8.280;2023-08-12T02:41:00;100588.16;;;19.03;90.02
79639;BME280;69114;49.108;8.280;2023-08-12T02:43:25;100581.06;;;19.09;89.95
79639;BME280;69114;49.108;8.280;2023-08-12T02:45:51;100575.06;;;19.10;89.58
79639;BME280;69114;49.108;8.280;2023-08-12T02:48:16;100579.59;;;19.15;89.26
79639;BME280;69114;49.108;8.280;2023-08-12T02:50:42;100574.88;;;19.19;89.12
79639;BME280;69114;49.108;8.280;2023-08-12T02:53:07;100571.69;;;19.05;88.42
79639;BME280;69114;49.108;8.280;2023-08-12T02:55:33;100560.28;;;19.17;88.84
79639;BME280;69114;49.108;8.280;2023-08-12T02:57:59;100546.63;;;19.19;88.54
79639;BME280;69114;49.108;8.280;2023-08-12T03:00:25;100557.56;;;19.05;89.03
79639;BME280;69114;49.108;8.280;2023-08-12T03:02:50;100566.38;;;19.03;88.47
79639;BME280;69114;49.108;8.280;2023-08-12T03:05:16;100562.19;;;19.13;87.47
79639;BME280;69114;49.108;8.280;2023-08-12T03:07:41;100553.53;;;19.22;86.66
79639;BME280;69114;49.108;8.280;2023-08-12T03:10:07;100536.97;;;19.20;87.22
79639;BME280;69114;49.108;8.280;2023-08-12T03:12:33;100527.56;;;19.32;87.62
79639;BME280;69114;49.108;8.280;2023-08-12T03:14:58;100519.19;;;19.35;86.87
79639;BME280;69114;49.108;8.280;2023-08-12T03:17:23;100518.75;;;19.33;86.76
79639;BME280;69114;49.108;8.280;2023-08-12T03:19:49;100529.84;;;19.26;87.17
79639;BME280;69114;49.108;8.280;2023-08-12T03:22:15;100527.69;;;19.19;87.13
79639;BME280;69114;49.108;8.280;2023-08-12T03:24:40;100532.50;;;19.19;87.10
79639;BME280;69114;49.108;8.280;2023-08-12T03:27:05;100530.41;;;19.16;87.29
79639;BME280;69114;49.108;8.280;2023-08-12T03:29:31;100533.72;;;19.18;87.25
79639;BME280;69114;49.108;8.280;2023-08-12T03:31:57;100534.44;;;19.15;87.62
79639;BME280;69114;49.108;8.280;2023-08-12T03:34:23;100532.69;;;19.10;88.08
79639;BME280;69114;49.108;8.280;2023-08-12T03:36:48;100533.50;;;19.11;88.03
79639;BME280;69114;49.108;8.280;2023-08-12T03:39:15;100529.06;;;19.10;88.28
79639;BME280;69114;49.108;8.280;2023-08-12T03:41:41;100525.13;;;19.14;88.19
79639;BME280;69114;49.108;8.280;2023-08-12T03:44:06;100519.94;;;19.16;87.89
79639;BME280;69114;49.108;8.280;2023-08-12T03:46:31;100516.47;;;19.23;87.88
79639;BME280;69114;49.108;8.280;2023-08-12T03:48:57;100520.94;;;19.24;87.84
79639;BME280;69114;49.108;8.280;2023-08-12T03:51:22;100508.88;;;19.27;87.14
79639;BME280;69114;49.108;8.280;2023-08-12T03:53:48;100517.84;;;19.29;87.67
79639;BME280;69114;49.108;8.280;2023-08-12T03:56:13;100528.41;;;19.32;87.49
79639;BME280;69114;49.108;8.280;2023-08-12T03:58:41;100530.38;;;19.32;87.37
79639;BME280;69114;49.108;8.280;2023-08-12T04:01:07;100540.59;;;19.36;87.23
79639;BME280;69114;49.108;8.280;2023-08-12T04:03:32;100544.59;;;19.35;87.24
79639;BME280;69114;49.108;8.280;2023-08-12T04:05:57;100550.25;;;19.35;87.11
79639;BME280;69114;49.108;8.280;2023-08-12T04:08:23;100552.63;;;19.33;86.97
79639;BME280;69114;49.108;8.280;2023-08-12T04:10:49;100559.09;;;19.34;87.20
79639;BME280;69114;49.108;8.280;2023-08-12T04:13:14;100562.31;;;19.32;86.99
79639;BME280;69114;49.108;8.280;2023-08-12T04:15:40;100550.16;;;19.32;87.16
79639;BME280;69114;49.108;8.280;2023-08-12T04:18:05;100559.47;;;19.32;86.96
79639;BME280;69114;49.108;8.280;2023-08-12T04:20:31;100556.66;;;19.32;87.23
79639;BME280;69114;49.108;8.280;2023-08-12T04:22:56;100561.53;;;19.35;87.11
79639;BME280;69114;49.108;8.280;2023-08-12T04:25:22;100559.19;;;19.37;87.03
79639;BME280;69114;49.108;8.280;2023-08-12T04:27:47;100553.13;;;19.55;86.50
79639;BME280;69114;49.108;8.280;2023-08-12T04:30:15;100553.88;;;19.67;85.30
79639;BME280;69114;49.108;8.280;2023-08-12T04:32:40;100547.84;;;19.69;85.22
79639;BME280;69114;49.108;8.280;2023-08-12T04:35:06;100558.25;;;19.65;85.66
79639;BME280;69114;49.108;8.280;2023-08-12T04:37:32;100564.34;;;19.67;85.70
79639;BME280;69114;49.108;8.280;2023-08-12T04:39:58;100558.53;;;19.60;85.79
79639;BME280;69114;49.108;8.280;2023-08-12T04:42:23;100569.72;;;19.72;85.46
79639;BME280;69114;49.108;8.280;2023-08-12T04:44:48;100561.69;;;19.58;86.01
79639;BME280;69114;49.108;8.280;2023-08-12T04:47:14;100567.19;;;19.67;85.67
79639;BME280;69114;49.108;8.280;2023-08-12T04:49:39;100573.75;;;19.71;85.50
79639;BME280;69114;49.108;8.280;2023-08-12T04:52:05;100558.84;;;19.74;85.47
79639;BME280;69114;49.108;8.280;2023-08-12T04:54:32;100553.19;;;19.74;85.22
79639;BME280;69114;49.108;8.280;2023-08-12T04:56:57;100546.38;;;19.75;85.36
79639;BME280;69114;49.108;8.280;2023-08-12T04:59:22;100539.66;;;19.64;85.83
79639;BME280;69114;49.108;8.280;2023-08-12T05:01:48;100537.91;;;19.59;85.86
79639;BME280;69114;49.108;8.280;2023-08-12T05:04:13;100533.56;;;19.62;85.91
79639;BME280;69114;49.108;8.280;2023-08-12T05:06:39;100532.16;;;19.56;86.15
79639;BME280;69114;49.108;8.280;2023-08-12T05:09:05;100532.81;;;19.49;86.57
79639;BME280;69114;49.108;8.280;2023-08-12T05:11:30;100536.47;;;19.50;86.48
79639;BME280;69114;49.108;8.280;2023-08-12T05:13:56;100537.56;;;19.45;86.98
79639;BME280;69114;49.108;8.280;2023-08-12T05:16:21;100537.28;;;19.66;86.14
79639;BME280;69114;49.108;8.280;2023-08-12T05:18:47;100540.72;;;19.75;85.88
79639;BME280;69114;49.108;8.280;2023-08-12T05:21:12;100528.97;;;19.73;85.82
79639;BME280;69114;49.108;8.280;2023-08-12T05:23:37;100529.44;;;19.75;86.03
79639;BME280;69114;49.108;8.280;2023-08-12T05:26:03;100539.16;;;19.78;85.94
79639;BME280;69114;49.108;8.280;2023-08-12T05:28:28;100541.47;;;19.72;86.82
79639;BME280;69114;49.108;8.280;2023-08-12T05:30:53;100543.00;;;19.69;86.39
79639;BME280;69114;49.108;8.280;2023-08-12T05:33:20;100542.94;;;19.66;86.83
79639;BME280;69114;49.108;8.280;2023-08-12T05:35:49;100554.47;;;19.77;86.42
79639;BME280;69114;49.108;8.280;2023-08-12T05:38:15;100554.56;;;19.80;86.42
79639;BME280;69114;49.108;8.280;2023-08-12T05:40:41;100558.75;;;19.86;86.03
79639;BME280;69114;49.108;8.280;2023-08-12T05:43:06;100554.28;;;20.05;85.35
79639;BME280;69114;49.108;8.280;2023-08-12T05:45:31;100550.28;;;20.06;85.20
79639;BME280;69114;49.108;8.280;2023-08-12T05:47:57;100556.97;;;20.17;84.78
79639;BME280;69114;49.108;8.280;2023-08-12T05:50:22;100540.28;;;20.31;84.11
79639;BME280;69114;49.108;8.280;2023-08-12T05:52:47;100550.13;;;20.37;83.65
79639;BME280;69114;49.108;8.280;2023-08-12T05:55:13;100553.91;;;20.45;83.37
79639;BME280;69114;49.108;8.280;2023-08-12T05:57:38;100541.50;;;20.50;83.33
79639;BME280;69114;49.108;8.280;2023-08-12T06:00:04;100547.75;;;20.59;83.01
79639;BME280;69114;49.108;8.280;2023-08-12T06:02:32;100538.59;;;20.65;82.86
79639;BME280;69114;49.108;8.280;2023-08-12T06:04:58;100555.13;;;20.86;82.11
79639;BME280;69114;49.108;8.280;2023-08-12T06:07:23;100547.78;;;21.05;80.92
79639;BME280;69114;49.108;8.280;2023-08-12T06:09:51;100545.94;;;21.16;80.54
79639;BME280;69114;49.108;8.280;2023-08-12T06:12:17;100545.44;;;21.33;80.33
79639;BME280;69114;49.108;8.280;2023-08-12T06:14:42;100544.47;;;21.48;79.03
79639;BME280;69114;49.108;8.280;2023-08-12T06:17:07;100543.06;;;21.62;78.43
79639;BME280;69114;49.108;8.280;2023-08-12T06:19:33;100554.41;;;21.62;78.10
79639;BME280;69114;49.108;8.280;2023-08-12T06:21:58;100558.84;;;21.63;78.37
79639;BME280;69114;49.108;8.280;2023-08-12T06:24:24;100550.13;;;21.75;78.10
79639;BME280;69114;49.108;8.280;2023-08-12T06:26:49;100550.69;;;21.88;77.22
79639;BME280;69114;49.108;8.280;2023-08-12T06:29:14;100553.06;;;21.82;77.02
79639;BME280;69114;49.108;8.280;2023-08-12T06:31:40;100553.78;;;22.06;76.82
79639;BME280;69114;49.108;8.280;2023-08-12T06:34:05;100554.81;;;21.90;76.86
79639;BME280;69114;49.108;8.280;2023-08-12T06:36:30;100558.94;;;21.96;76.82
79639;BME280;69114;49.108;8.280;2023-08-12T06:38:56;100559.47;;;22.06;79.24
79639;BME280;69114;49.108;8.280;2023-08-12T06:41:21;100551.69;;;22.29;76.77
79639;BME280;69114;49.108;8.280;2023-08-12T06:43:47;100546.59;;;22.45;76.40
79639;BME280;69114;49.108;8.280;2023-08-12T06:46:12;100549.69;;;22.67;78.06
79639;BME280;69114;49.108;8.280;2023-08-12T06:48:37;100547.25;;;22.69;75.58
79639;BME280;69114;49.108;8.280;2023-08-12T06:51:03;100556.91;;;22.94;74.36
79639;BME280;69114;49.108;8.280;2023-08-12T06:53:36;100555.53;;;23.22;73.14
79639;BME280;69114;49.108;8.280;2023-08-12T06:56:02;100544.63;;;23.28;71.99
79639;BME280;69114;49.108;8.280;2023-08-12T06:58:28;100553.38;;;23.12;73.25
79639;BME280;69114;49.108;8.280;2023-08-12T07:00:53;100547.56;;;22.94;73.26
79639;BME280;69114;49.108;8.280;2023-08-12T07:03:19;100540.41;;;22.73;75.33
79639;BME280;69114;49.108;8.280;2023-08-12T07:05:44;100533.34;;;22.57;77.82
79639;BME280;69114;49.108;8.280;2023-08-12T07:08:09;100529.16;;;22.43;77.82
79639;BME280;69114;49.108;8.280;2023-08-12T07:10:38;100531.41;;;22.27;79.45
79639;BME280;69114;49.108;8.280;2023-08-12T07:13:04;100533.44;;;22.30;81.80
79639;BME280;69114;49.108;8.280;2023-08-12T07:15:29;100530.63;;;22.30;81.76
79639;BME280;69114;49.108;8.280;2023-08-12T07:17:54;100533.56;;;22.37;82.74
79639;BME280;69114;49.108;8.280;2023-08-12T07:20:20;100534.72;;;22.33;78.58
79639;BME280;69114;49.108;8.280;2023-08-12T07:22:45;100543.56;;;22.28;77.52
79639;BME280;69114;49.108;8.280;2023-08-12T07:25:11;100546.13;;;22.36;76.45
79639;BME280;69114;49.108;8.280;2023-08-12T07:27:36;100543.09;;;22.56;75.00
79639;BME280;69114;49.108;8.280;2023-08-12T07:30:01;100544.47;;;22.72;77.14
79639;BME280;69114;49.108;8.280;2023-08-12T07:32:27;100543.06;;;22.89;75.12
79639;BME280;69114;49.108;8.280;2023-08-12T07:34:52;100537.44;;;22.96;75.37
79639;BME280;69114;49.108;8.280;2023-08-12T07:37:17;100545.78;;;23.23;73.36
79639;BME280;69114;49.108;8.280;2023-08-12T07:39:43;100543.91;;;23.41;75.43
79639;BME280;69114;49.108;8.280;2023-08-12T07:42:08;100544.56;;;23.24;71.45
79639;BME280;69114;49.108;8.280;2023-08-12T07:44:33;100541.63;;;23.10;72.28
79639;BME280;69114;49.108;8.280;2023-08-12T07:46:59;100544.69;;;22.90;73.91
79639;BME280;69114;49.108;8.280;2023-08-12T07:49:24;100541.72;;;22.83;74.40
79639;BME280;69114;49.108;8.280;2023-08-12T07:51:49;100541.44;;;22.92;75.14
79639;BME280;69114;49.108;8.280;2023-08-12T07:54:15;100543.56;;;22.98;78.25
79639;BME280;69114;49.108;8.280;2023-08-12T07:56:40;100546.91;;;23.11;76.34
79639;BME280;69114;49.108;8.280;2023-08-12T07:59:06;100547.00;;;23.25;75.85
79639;BME280;69114;49.108;8.280;2023-08-12T08:06:41;100541.88;;;24.04;75.11
79639;BME280;69114;49.108;8.280;2023-08-12T08:11:41;100520.13;;;24.40;71.67
79639;BME280;69114;49.108;8.280;2023-08-12T08:14:06;100510.81;;;24.83;71.41
79639;BME280;69114;49.108;8.280;2023-08-12T08:16:32;100516.13;;;24.98;68.87
79639;BME280;69114;49.108;8.280;2023-08-12T08:18:57;100522.66;;;24.99;67.59
79639;BME280;69114;49.108;8.280;2023-08-12T08:21:22;100529.19;;;25.10;66.70
79639;BME280;69114;49.108;8.280;2023-08-12T08:23:48;100535.66;;;24.96;66.18
79639;BME280;69114;49.108;8.280;2023-08-12T08:26:13;100532.41;;;25.01;66.05
79639;BME280;69114;49.108;8.280;2023-08-12T08:28:40;100520.22;;;25.19;66.07
79639;BME280;69114;49.108;8.280;2023-08-12T08:31:06;100523.50;;;25.32;66.41
79639;BME280;69114;49.108;8.280;2023-08-12T08:33:31;100531.63;;;25.54;67.38
79639;BME280;69114;49.108;8.280;2023-08-12T08:35:57;100526.66;;;25.73;66.99
79639;BME280;69114;49.108;8.280;2023-08-12T08:38:22;100538.13;;;25.51;65.90
79639;BME280;69114;49.108;8.280;2023-08-12T08:40:49;100536.94;;;25.45;67.09
79639;BME280;69114;49.108;8.280;2023-08-12T08:43:20;100541.38;;;25.57;67.77
79639;BME280;69114;49.108;8.280;2023-08-12T08:45:46;100533.22;;;25.84;64.00
79639;BME280;69114;49.108;8.280;2023-08-12T08:48:12;100525.84;;;25.90;65.18
79639;BME280;69114;49.108;8.280;2023-08-12T08:50:38;100527.84;;;26.08;66.14
79639;BME280;69114;49.108;8.280;2023-08-12T08:53:06;100517.06;;;26.44;63.84
79639;BME280;69114;49.108;8.280;2023-08-12T08:55:31;100502.59;;;25.92;64.03
79639;BME280;69114;49.108;8.280;2023-08-12T08:57:57;100504.50;;;26.27;65.03
79639;BME280;69114;49.108;8.280;2023-08-12T09:00:23;100520.72;;;26.51;65.26
79639;BME280;69114;49.108;8.280;2023-08-12T09:02:49;100515.88;;;26.34;65.38
79639;BME280;69114;49.108;8.280;2023-08-12T09:05:16;100512.16;;;26.48;64.56
79639;BME280;69114;49.108;8.280;2023-08-12T09:07:42;100518.91;;;26.79;64.04
79639;BME280;69114;49.108;8.280;2023-08-12T09:10:13;100509.28;;;27.14;62.04
79639;BME280;69114;49.108;8.280;2023-08-12T09:12:39;100516.66;;;27.12;61.12
79639;BME280;69114;49.108;8.280;2023-08-12T09:15:05;100517.88;;;27.11;60.81
79639;BME280;69114;49.108;8.280;2023-08-12T09:17:32;100518.63;;;27.18;60.75
79639;BME280;69114;49.108;8.280;2023-08-12T09:19:58;100522.97;;;27.37;60.31
79639;BME280;69114;49.108;8.280;2023-08-12T09:22:24;100520.19;;;27.30;61.24
79639;BME280;69114;49.108;8.280;2023-08-12T09:24:56;100510.88;;;27.15;61.21
79639;BME280;69114;49.108;8.280;2023-08-12T09:27:21;100505.81;;;27.37;61.74
79639;BME280;69114;49.108;8.280;2023-08-12T09:29:46;100495.66;;;27.29;62.03
79639;BME280;69114;49.108;8.280;2023-08-12T09:32:13;100494.81;;;27.32;59.72
79639;BME280;69114;49.108;8.280;2023-08-12T09:34:49;100506.47;;;27.93;60.36
79639;BME280;69114;49.108;8.280;2023-08-12T09:37:15;100513.28;;;28.37;59.57
79639;BME280;69114;49.108;8.280;2023-08-12T09:39:41;100527.47;;;27.79;59.78
79639;BME280;69114;49.108;8.280;2023-08-12T09:42:07;100526.72;;;27.72;60.34
79639;BME280;69114;49.108;8.280;2023-08-12T09:44:36;100531.91;;;27.84;58.72
79639;BME280;69114;49.108;8.280;2023-08-12T09:47:01;100525.50;;;27.69;59.91
79639;BME280;69114;49.108;8.280;2023-08-12T09:49:28;100531.41;;;28.27;58.73
79639;BME280;69114;49.108;8.280;2023-08-12T09:51:54;100529.50;;;28.17;57.41
79639;BME280;69114;49.108;8.280;2023-08-12T09:54:20;100525.78;;;27.82;59.37
79639;BME280;69114;49.108;8.280;2023-08-12T09:56:54;100511.41;;;27.89;58.98
79639;BME280;69114;49.108;8.280;2023-08-12T09:59:22;100519.34;;;28.08;58.52
79639;BME280;69114;49.108;8.280;2023-08-12T10:01:49;100508.72;;;27.75;59.52
79639;BME280;69114;49.108;8.280;2023-08-12T10:04:17;100518.50;;;28.12;58.17
79639;BME280;69114;49.108;8.280;2023-08-12T10:06:44;100521.22;;;28.22;58.14
79639;BME280;69114;49.108;8.280;2023-08-12T10:09:10;100501.69;;;28.14;58.37
79639;BME280;69114;49.108;8.280;2023-08-12T10:11:36;100508.00;;;28.01;59.49
79639;BME280;69114;49.108;8.280;2023-08-12T10:14:03;100514.97;;;28.35;56.97
79639;BME280;69114;49.108;8.280;2023-08-12T10:16:29;100502.41;;;28.55;57.59
79639;BME280;69114;49.108;8.280;2023-08-12T10:18:56;100499.16;;;29.31;55.52
79639;BME280;69114;49.108;8.280;2023-08-12T10:21:22;100500.91;;;29.25;53.41
79639;BME280;69114;49.108;8.280;2023-08-12T10:23:50;100502.78;;;28.84;54.26
79639;BME280;69114;49.108;8.280;2023-08-12T10:26:17;100499.47;;;28.59;55.07
79639;BME280;69114;49.108;8.280;2023-08-12T10:28:43;100503.22;;;28.83;54.77
79639;BME280;69114;49.108;8.280;2023-08-12T10:31:08;100498.03;;;29.01;53.39
79639;BME280;69114;49.108;8.280;2023-08-12T10:33:37;100500.00;;;28.50;55.04
79639;BME280;69114;49.108;8.280;2023-08-12T10:36:03;100524.91;;;28.23;55.99
79639;BME280;69114;49.108;8.280;2023-08-12T10:38:29;100524.69;;;27.69;56.99
79639;BME280;69114;49.108;8.280;2023-08-12T10:41:21;100543.69;;;27.48;58.11
79639;BME280;69114;49.108;8.280;2023-08-12T10:46:34;100565.56;;;26.62;61.07
79639;BME280;69114;49.108;8.280;2023-08-12T10:49:04;100563.19;;;26.49;62.10
79639;BME280;69114;49.108;8.280;2023-08-12T10:54:22;100563.75;;;24.84;74.08
79639;BME280;69114;49.108;8.280;2023-08-12T11:02:26;100568.94;;;22.47;83.77
79639;BME280;69114;49.108;8.280;2023-08-12T11:04:57;100556.91;;;22.23;84.07
79639;BME280;69114;49.108;8.280;2023-08-12T11:07:28;100548.13;;;22.06;85.11
79639;BME280;69114;49.108;8.280;2023-08-12T11:10:00;100556.00;;;21.89;85.97
79639;BME280;69114;49.108;8.280;2023-08-12T11:12:30;100560.94;;;21.96;88.88
79639;BME280;69114;49.108;8.280;2023-08-12T11:14:58;100556.69;;;22.09;90.61
79639;BME280;69114;49.108;8.280;2023-08-12T11:20:00;100564.44;;;22.12;84.53
79639;BME280;69114;49.108;8.280;2023-08-12T11:22:26;100558.41;;;22.14;84.93
79639;BME280;69114;49.108;8.280;2023-08-12T11:24:52;100560.44;;;22.47;83.50
79639;BME280;69114;49.108;8.280;2023-08-12T11:27:21;100566.13;;;22.88;81.88
79639;BME280;69114;49.108;8.280;2023-08-12T11:29:49;100555.97;;;23.28;77.37
79639;BME280;69114;49.108;8.280;2023-08-12T11:32:15;100553.22;;;23.97;76.86
79639;BME280;69114;49.108;8.280;2023-08-12T11:34:44;100547.41;;;23.75;77.11
79639;BME280;69114;49.108;8.280;2023-08-12T11:37:09;100548.19;;;23.21;78.54
79639;BME280;69114;49.108;8.280;2023-08-12T11:39:35;100553.78;;;23.10;75.55
79639;BME280;69114;49.108;8.280;2023-08-12T11:42:00;100559.16;;;23.19;75.81
79639;BME280;69114;49.108;8.280;2023-08-12T11:44:26;100553.25;;;22.97;80.70
79639;BME280;69114;49.108;8.280;2023-08-12T11:46:51;100555.13;;;23.23;81.69
79639;BME280;69114;49.108;8.280;2023-08-12T11:49:18;100551.59;;;23.96;76.20
79639;BME280;69114;49.108;8.280;2023-08-12T11:51:45;100548.56;;;24.37;75.62
79639;BME280;69114;49.108;8.280;2023-08-12T11:54:12;100550.94;;;23.62;78.18
79639;BME280;69114;49.108;8.280;2023-08-12T11:56:37;100539.81;;;23.97;76.30
79639;BME280;69114;49.108;8.280;2023-08-12T11:59:03;100542.25;;;25.22;73.15
79639;BME280;69114;49.108;8.280;2023-08-12T12:01:31;100530.69;;;26.11;68.37
79639;BME280;69114;49.108;8.280;2023-08-12T12:04:00;100521.34;;;26.80;66.46
79639;BME280;69114;49.108;8.280;2023-08-12T12:06:33;100519.22;;;26.15;67.06
79639;BME280;69114;49.108;8.280;2023-08-12T12:09:06;100514.03;;;26.76;67.44
79639;BME280;69114;49.108;8.280;2023-08-12T12:11:32;100512.34;;;26.01;68.46
79639;BME280;69114;49.108;8.280;2023-08-12T12:14:02;100511.19;;;25.88;68.04
79639;BME280;69114;49.108;8.280;2023-08-12T12:16:37;100519.38;;;25.58;69.73
79639;BME280;69114;49.108;8.280;2023-08-12T12:19:02;100523.38;;;26.03;69.13
79639;BME280;69114;49.108;8.280;2023-08-12T12:21:28;100528.31;;;25.63;70.67
79639;BME280;69114;49.108;8.280;2023-08-12T12:23:54;100522.69;;;25.10;72.28
79639;BME280;69114;49.108;8.280;2023-08-12T12:26:19;100536.09;;;25.48;70.29
79639;BME280;69114;49.108;8.280;2023-08-12T12:28:45;100536.53;;;25.36;71.24
79639;BME280;69114;49.108;8.280;2023-08-12T12:31:10;100530.81;;;25.11;70.07
79639;BME280;69114;49.108;8.280;2023-08-12T12:33:35;100524.28;;;25.39;69.07
79639;BME280;69114;49.108;8.280;2023-08-12T12:36:01;100530.75;;;25.93;68.18
79639;BME280;69114;49.108;8.280;2023-08-12T12:38:26;100528.91;;;26.49;66.82
79639;BME280;69114;49.108;8.280;2023-08-12T12:40:52;100532.19;;;26.37;67.67
79639;BME280;69114;49.108;8.280;2023-08-12T12:43:17;100544.63;;;27.35;63.43
79639;BME280;69114;49.108;8.280;2023-08-12T12:45:42;100523.91;;;28.94;59.82
79639;BME280;69114;49.108;8.280;2023-08-12T12:48:08;100522.53;;;29.06;57.73
79639;BME280;69114;49.108;8.280;2023-08-12T12:50:33;100515.03;;;29.82;55.11
79639;BME280;69114;49.108;8.280;2023-08-12T12:52:58;100512.81;;;30.50;54.21
79639;BME280;69114;49.108;8.280;2023-08-12T12:55:24;100527.28;;;29.16;57.06
79639;BME280;69114;49.108;8.280;2023-08-12T12:57:49;100527.69;;;29.15;54.52
79639;BME280;69114;49.108;8.280;2023-08-12T13:00:14;100528.88;;;27.61;59.05
79639;BME280;69114;49.108;8.280;2023-08-12T13:02:41;100527.53;;;27.31;61.08
79639;BME280;69114;49.108;8.280;2023-08-12T13:05:07;100524.19;;;26.84;62.64
79639;BME280;69114;49.108;8.280;2023-08-12T13:07:32;100532.19;;;27.55;61.39
79639;BME280;69114;49.108;8.280;2023-08-12T13:09:57;100529.19;;;27.25;62.96